createdAt,value
2022-10-04T00:00:17.578Z,192.50
2022-10-04T00:01:17.693Z,157.60
2022-10-04T00:02:17.668Z,191.60
2022-10-04T00:03:17.583Z,195.30
2022-10-04T00:04:17.523Z,198.00
2022-10-04T00:05:17.509Z,193.70
2022-10-04T00:06:18.510Z,195.00
2022-10-04T00:07:17.506Z,198.20
2022-10-04T00:08:17.500Z,188.50
2022-10-04T00:09:17.488Z,190.30
2022-10-04T00:10:17.466Z,189.60
2022-10-04T00:11:17.489Z,195.80
2022-10-04T00:12:17.436Z,195.90
2022-10-04T00:13:17.447Z,193.40
2022-10-04T00:14:17.415Z,186.50
2022-10-04T00:15:17.424Z,188.80
2022-10-04T00:16:17.471Z,192.00
2022-10-04T00:17:17.398Z,193.20
2022-10-04T00:18:17.385Z,196.40
2022-10-04T00:19:17.363Z,194.00
2022-10-04T00:20:17.359Z,193.10
2022-10-04T00:21:17.344Z,188.70
2022-10-04T00:22:17.405Z,194.30
2022-10-04T00:23:17.366Z,193.00
2022-10-04T00:24:17.295Z,192.70
2022-10-04T00:25:17.298Z,190.10
2022-10-04T00:26:17.275Z,187.90
2022-10-04T00:27:17.308Z,193.20
2022-10-04T00:28:17.289Z,184.70
2022-10-04T00:29:17.258Z,180.80
2022-10-04T00:30:17.245Z,187.20
2022-10-04T00:31:17.253Z,186.40
2022-10-04T00:32:17.251Z,181.10
2022-10-04T00:33:17.191Z,181.20
2022-10-04T00:34:17.177Z,188.00
2022-10-04T00:35:17.175Z,186.80
2022-10-04T00:36:17.180Z,181.90
2022-10-04T00:37:17.196Z,179.20
2022-10-04T00:38:17.148Z,185.30
2022-10-04T00:39:17.138Z,183.10
2022-10-04T00:40:17.116Z,182.50
2022-10-04T00:41:17.121Z,187.60
2022-10-04T00:42:17.146Z,184.70
2022-10-04T00:43:17.119Z,181.50
2022-10-04T00:44:17.075Z,184.60
2022-10-04T00:45:17.061Z,180.00
2022-10-04T00:46:17.097Z,190.30
2022-10-04T00:47:17.096Z,185.90
2022-10-04T00:48:17.039Z,187.10
2022-10-04T00:49:17.023Z,185.70
2022-10-04T00:50:17.015Z,187.60
2022-10-04T00:51:17.001Z,181.50
2022-10-04T00:52:17.038Z,183.00
2022-10-04T00:53:16.975Z,185.30
2022-10-04T00:54:16.963Z,177.80
2022-10-04T00:55:16.957Z,186.40
2022-10-04T00:56:16.938Z,187.90
2022-10-04T00:57:16.976Z,198.40
2022-10-04T00:58:16.916Z,189.30
2022-10-04T00:59:16.900Z,196.90
2022-10-04T01:00:16.896Z,196.00
2022-10-04T01:01:16.957Z,199.30
2022-10-04T01:02:16.914Z,201.70
2022-10-04T01:03:16.848Z,201.80
2022-10-04T01:04:16.835Z,200.00
2022-10-04T01:05:16.829Z,197.20
2022-10-04T01:06:16.863Z,201.50
2022-10-04T01:07:16.825Z,202.40
2022-10-04T01:08:16.838Z,209.50
2022-10-04T01:09:16.805Z,204.00
2022-10-04T01:10:16.768Z,206.10
2022-10-04T01:11:16.824Z,205.70
2022-10-04T01:12:16.754Z,215.60
2022-10-04T01:13:16.746Z,213.20
2022-10-04T01:14:16.736Z,215.30
2022-10-04T01:15:16.718Z,215.50
2022-10-04T01:16:16.857Z,226.10
2022-10-04T01:17:16.691Z,230.90
2022-10-04T01:18:16.671Z,234.50
2022-10-04T01:19:16.680Z,236.50
2022-10-04T01:20:16.659Z,239.60
2022-10-04T01:21:16.697Z,235.50
2022-10-04T01:22:16.639Z,233.70
2022-10-04T01:23:16.644Z,227.20
2022-10-04T01:24:16.612Z,231.90
2022-10-04T01:25:16.623Z,238.00
2022-10-04T01:26:16.651Z,233.30
2022-10-04T01:27:16.577Z,239.60
2022-10-04T01:28:16.638Z,234.90
2022-10-04T01:29:16.553Z,237.40
2022-10-04T01:30:16.554Z,242.30
2022-10-04T01:31:16.628Z,242.00
2022-10-04T01:32:16.503Z,248.80
2022-10-04T01:33:16.504Z,249.00
2022-10-04T01:34:16.502Z,242.00
2022-10-04T01:35:16.483Z,241.70
2022-10-04T01:36:16.537Z,247.40
2022-10-04T01:37:16.483Z,249.40
2022-10-04T01:38:16.477Z,249.00
2022-10-04T01:39:16.455Z,250.20
2022-10-04T01:40:16.441Z,246.60
2022-10-04T01:41:16.479Z,239.40
2022-10-04T01:42:16.412Z,242.30
2022-10-04T01:43:16.398Z,230.70
2022-10-04T01:44:16.395Z,244.60
2022-10-04T01:45:16.357Z,245.70
2022-10-04T01:46:16.463Z,242.40
2022-10-04T01:47:16.371Z,236.90
2022-10-04T01:48:16.332Z,233.10
2022-10-04T01:49:16.335Z,238.30
2022-10-04T01:50:16.313Z,241.50
2022-10-04T01:51:16.355Z,237.20
2022-10-04T01:52:16.295Z,243.30
2022-10-04T01:53:16.289Z,233.70
2022-10-04T01:54:16.309Z,237.90
2022-10-04T01:55:16.253Z,238.00
2022-10-04T01:56:16.301Z,244.70
2022-10-04T01:57:16.241Z,237.70
2022-10-04T01:58:16.239Z,243.30
2022-10-04T01:59:16.217Z,240.70
2022-10-04T02:00:16.220Z,236.40
2022-10-04T02:01:16.288Z,238.20
2022-10-04T02:02:16.181Z,238.40
2022-10-04T02:03:16.155Z,240.00
2022-10-04T02:04:19.800Z,241.20
2022-10-04T02:05:17.129Z,233.10
2022-10-04T02:06:16.194Z,230.50
2022-10-04T02:07:16.137Z,234.30
2022-10-04T02:08:16.119Z,236.80
2022-10-04T02:09:16.096Z,234.70
2022-10-04T02:10:16.099Z,230.80
2022-10-04T02:11:16.133Z,227.90
2022-10-04T02:12:16.079Z,224.30
2022-10-04T02:13:16.056Z,219.60
2022-10-04T02:14:16.063Z,224.80
2022-10-04T02:15:16.018Z,229.50
2022-10-04T02:16:16.157Z,229.50
2022-10-04T02:17:16.015Z,229.50
2022-10-04T02:18:16.000Z,227.30
2022-10-04T02:19:15.996Z,227.50
2022-10-04T02:20:15.978Z,222.90
2022-10-04T02:21:16.012Z,226.10
2022-10-04T02:22:15.963Z,227.80
2022-10-04T02:23:15.936Z,227.60
2022-10-04T02:24:15.944Z,229.80
2022-10-04T02:25:15.919Z,229.40
2022-10-04T02:26:15.959Z,228.30
2022-10-04T02:27:15.891Z,225.80
2022-10-04T02:28:15.967Z,228.70
2022-10-04T02:29:15.882Z,227.20
2022-10-04T02:30:15.857Z,222.00
2022-10-04T02:31:15.908Z,229.10
2022-10-04T02:32:15.833Z,232.40
2022-10-04T02:33:15.815Z,227.70
2022-10-04T02:34:15.807Z,226.40
2022-10-04T02:35:15.795Z,231.20
2022-10-04T02:36:15.832Z,235.10
2022-10-04T02:37:15.780Z,236.00
2022-10-04T02:38:15.783Z,233.30
2022-10-04T02:39:15.782Z,232.90
2022-10-04T02:40:15.736Z,228.70
2022-10-04T02:41:15.782Z,243.60
2022-10-04T02:42:15.733Z,238.40
2022-10-04T02:43:15.700Z,237.70
2022-10-04T02:44:15.702Z,242.20
2022-10-04T02:45:15.683Z,245.00
2022-10-04T02:46:15.731Z,238.30
2022-10-04T02:47:15.664Z,236.60
2022-10-04T02:48:15.656Z,237.10
2022-10-04T02:49:15.634Z,240.20
2022-10-04T02:50:15.631Z,242.30
2022-10-04T02:51:15.657Z,235.80
2022-10-04T02:52:15.607Z,242.70
2022-10-04T02:53:15.590Z,237.20
2022-10-04T02:54:15.589Z,241.90
2022-10-04T02:55:15.591Z,246.40
2022-10-04T02:56:15.615Z,243.00
2022-10-04T02:57:15.551Z,249.00
2022-10-04T02:58:15.532Z,242.20
2022-10-04T02:59:15.525Z,245.20
2022-10-04T03:00:15.520Z,248.30
2022-10-04T03:01:15.614Z,241.10
2022-10-04T03:02:15.693Z,237.80
2022-10-04T03:03:15.484Z,240.30
2022-10-04T03:04:15.471Z,237.70
2022-10-04T03:05:15.446Z,231.30
2022-10-04T03:06:15.485Z,235.40
2022-10-04T03:07:15.430Z,230.10
2022-10-04T03:08:15.416Z,231.10
2022-10-04T03:09:15.415Z,229.90
2022-10-04T03:10:15.408Z,234.60
2022-10-04T03:11:15.425Z,238.00
2022-10-04T03:12:15.363Z,233.30
2022-10-04T03:13:15.370Z,231.40
2022-10-04T03:14:15.354Z,234.40
2022-10-04T03:15:15.336Z,234.20
2022-10-04T03:16:15.501Z,232.00
2022-10-04T03:17:15.317Z,236.90
2022-10-04T03:18:15.317Z,230.90
2022-10-04T03:19:15.294Z,242.50
2022-10-04T03:20:15.280Z,239.30
2022-10-04T03:21:15.308Z,241.30
2022-10-04T03:22:15.261Z,247.50
2022-10-04T03:23:15.244Z,230.70
2022-10-04T03:24:15.288Z,237.20
2022-10-04T03:25:15.222Z,243.60
2022-10-04T03:26:15.256Z,252.20
2022-10-04T03:27:15.205Z,245.70
2022-10-04T03:28:15.251Z,244.60
2022-10-04T03:29:15.173Z,242.30
2022-10-04T03:30:15.177Z,250.70
2022-10-04T03:31:15.285Z,254.70
2022-10-04T03:32:15.149Z,248.40
2022-10-04T03:33:15.137Z,244.40
2022-10-04T03:34:15.126Z,244.90
2022-10-04T03:35:15.110Z,244.90
2022-10-04T03:36:15.144Z,244.00
2022-10-04T03:37:15.072Z,242.90
2022-10-04T03:38:15.074Z,246.60
2022-10-04T03:39:15.062Z,245.00
2022-10-04T03:40:15.060Z,243.90
2022-10-04T03:41:15.087Z,245.20
2022-10-04T03:42:15.037Z,244.80
2022-10-04T03:43:15.017Z,241.90
2022-10-04T03:44:15.016Z,236.10
2022-10-04T03:45:14.992Z,234.40
2022-10-04T03:46:15.060Z,244.40
2022-10-04T03:47:14.975Z,233.40
2022-10-04T03:48:14.959Z,245.30
2022-10-04T03:49:14.935Z,251.50
2022-10-04T03:50:14.943Z,254.10
2022-10-04T03:51:14.964Z,262.20
2022-10-04T03:52:14.919Z,272.00
2022-10-04T03:53:14.908Z,274.00
2022-10-04T03:54:14.898Z,277.20
2022-10-04T03:55:14.885Z,285.80
2022-10-04T03:56:14.916Z,291.70
2022-10-04T03:57:14.859Z,286.40
2022-10-04T03:58:14.850Z,285.90
2022-10-04T03:59:14.831Z,287.60
2022-10-04T04:00:14.828Z,287.60
2022-10-04T04:01:14.916Z,283.60
2022-10-04T04:02:14.867Z,282.20
2022-10-04T04:03:14.787Z,283.50
2022-10-04T04:04:14.791Z,280.40
2022-10-04T04:05:14.765Z,282.50
2022-10-04T04:06:14.798Z,280.00
2022-10-04T04:07:14.747Z,280.10
2022-10-04T04:08:14.743Z,273.10
2022-10-04T04:09:15.725Z,279.10
2022-10-04T04:10:16.944Z,288.60
2022-10-04T04:11:14.743Z,293.90
2022-10-04T04:12:14.686Z,299.60
2022-10-04T04:13:14.671Z,297.50
2022-10-04T04:14:14.673Z,307.10
2022-10-04T04:15:14.650Z,301.40
2022-10-04T04:16:14.760Z,300.70
2022-10-04T04:17:14.644Z,286.70
2022-10-04T04:18:14.646Z,290.80
2022-10-04T04:19:14.617Z,290.10
2022-10-04T04:20:14.624Z,282.20
2022-10-04T04:21:14.636Z,294.90
2022-10-04T04:22:14.579Z,291.00
2022-10-04T04:23:14.576Z,294.30
2022-10-04T04:24:14.562Z,299.70
2022-10-04T04:25:14.559Z,292.70
2022-10-04T04:26:14.593Z,278.90
2022-10-04T04:27:14.516Z,284.20
2022-10-04T04:28:14.616Z,276.30
2022-10-04T04:29:14.492Z,284.40
2022-10-04T04:30:14.515Z,289.40
2022-10-04T04:31:14.605Z,297.40
2022-10-04T04:32:14.487Z,292.40
2022-10-04T04:33:18.953Z,295.80
2022-10-04T04:34:15.463Z,303.20
2022-10-04T04:35:14.441Z,302.80
2022-10-04T04:36:14.481Z,303.60
2022-10-04T04:37:14.431Z,307.40
2022-10-04T04:38:14.411Z,301.50
2022-10-04T04:39:14.409Z,305.70
2022-10-04T04:40:14.378Z,294.70
2022-10-04T04:41:14.429Z,294.30
2022-10-04T04:42:14.375Z,286.20
2022-10-04T04:43:14.359Z,293.30
2022-10-04T04:44:14.345Z,290.30
2022-10-04T04:45:14.320Z,288.40
2022-10-04T04:46:29.478Z,285.10
2022-10-04T04:47:18.176Z,292.80
2022-10-04T04:48:14.315Z,292.10
2022-10-04T04:49:14.280Z,290.10
2022-10-04T04:50:14.292Z,292.40
2022-10-04T04:51:14.291Z,298.70
2022-10-04T04:52:14.263Z,300.50
2022-10-04T04:53:14.238Z,291.60
2022-10-04T04:54:14.215Z,293.80
2022-10-04T04:55:14.248Z,288.80
2022-10-04T04:56:17.492Z,284.50
2022-10-04T04:57:14.165Z,285.70
2022-10-04T04:58:14.170Z,274.60
2022-10-04T04:59:14.173Z,279.70
2022-10-04T05:00:14.162Z,300.70
2022-10-04T05:01:14.240Z,305.40
2022-10-04T05:02:14.194Z,300.60
2022-10-04T05:03:14.118Z,302.00
2022-10-04T05:04:14.146Z,299.20
2022-10-04T05:05:14.083Z,303.00
2022-10-04T05:06:14.147Z,299.60
2022-10-04T05:07:14.075Z,305.70
2022-10-04T05:08:14.072Z,302.90
2022-10-04T05:09:14.070Z,298.70
2022-10-04T05:10:14.050Z,287.10
2022-10-04T05:11:14.079Z,286.90
2022-10-04T05:12:14.026Z,286.00
2022-10-04T05:13:14.021Z,291.10
2022-10-04T05:14:14.012Z,284.60
2022-10-04T05:15:15.331Z,278.10
2022-10-04T05:16:14.102Z,288.50
2022-10-04T05:17:13.958Z,291.40
2022-10-04T05:18:13.964Z,286.80
2022-10-04T05:19:13.952Z,282.80
2022-10-04T05:20:13.945Z,276.90
2022-10-04T05:21:13.924Z,287.20
2022-10-04T05:22:13.957Z,290.30
2022-10-04T05:23:13.908Z,292.90
2022-10-04T05:24:13.879Z,287.30
2022-10-04T05:25:13.881Z,291.10
2022-10-04T05:26:13.870Z,298.60
2022-10-04T05:27:13.886Z,300.70
2022-10-04T05:28:13.853Z,313.80
2022-10-04T05:29:13.826Z,307.30
2022-10-04T05:30:13.821Z,297.40
2022-10-04T05:31:13.836Z,297.90
2022-10-04T05:32:13.838Z,287.30
2022-10-04T05:33:13.776Z,273.30
2022-10-04T05:34:13.781Z,274.80
2022-10-04T05:35:13.763Z,270.70
2022-10-04T05:36:13.795Z,265.00
2022-10-04T05:37:13.776Z,267.40
2022-10-04T05:38:13.724Z,257.20
2022-10-04T05:39:13.699Z,276.00
2022-10-04T05:40:13.737Z,281.50
2022-10-04T05:41:13.695Z,277.60
2022-10-04T05:42:13.732Z,276.60
2022-10-04T05:43:13.666Z,292.10
2022-10-04T05:44:13.660Z,308.30
2022-10-04T05:45:13.643Z,307.20
2022-10-04T05:46:13.701Z,324.50
2022-10-04T05:47:13.670Z,321.10
2022-10-04T05:48:13.630Z,326.30
2022-10-04T05:49:18.890Z,309.90
2022-10-04T05:50:14.579Z,301.90
2022-10-04T05:51:13.577Z,267.70
2022-10-04T05:52:13.637Z,262.50
2022-10-04T05:53:13.562Z,243.90
2022-10-04T05:54:13.550Z,239.70
2022-10-04T05:55:13.555Z,229.50
2022-10-04T05:56:13.504Z,228.00
2022-10-04T05:57:13.601Z,215.70
2022-10-04T05:58:13.495Z,213.10
2022-10-04T05:59:13.478Z,228.40
2022-10-04T06:00:13.488Z,234.30
2022-10-04T06:01:13.527Z,241.20
2022-10-04T06:02:13.579Z,250.60
2022-10-04T06:03:13.440Z,260.30
2022-10-04T06:04:13.458Z,266.60
2022-10-04T06:05:13.418Z,270.10
2022-10-04T06:06:13.401Z,265.90
2022-10-04T06:07:13.429Z,259.00
2022-10-04T06:08:13.378Z,255.50
2022-10-04T06:09:13.395Z,223.30
2022-10-04T06:10:13.357Z,202.60
2022-10-04T06:11:13.362Z,191.20
2022-10-04T06:12:13.416Z,186.30
2022-10-04T06:13:13.455Z,183.90
2022-10-04T06:14:13.320Z,151.60
2022-10-04T06:15:13.308Z,87.50
2022-10-04T06:16:13.341Z,152.60
2022-10-04T06:17:13.307Z,133.70
2022-10-04T06:18:13.279Z,125.30
2022-10-04T06:19:13.262Z,99.70
2022-10-04T06:20:13.275Z,100.40
2022-10-04T06:21:13.243Z,143.10
2022-10-04T06:22:13.289Z,107.80
2022-10-04T06:23:13.239Z,117.90
2022-10-04T06:24:13.209Z,138.50
2022-10-04T06:25:13.197Z,164.80
2022-10-04T06:26:13.194Z,179.20
2022-10-04T06:27:13.209Z,80.50
2022-10-04T06:28:13.182Z,74.60
2022-10-04T06:29:13.146Z,182.20
2022-10-04T06:30:13.144Z,147.00
2022-10-04T06:31:13.179Z,197.50
2022-10-04T06:32:13.163Z,156.60
2022-10-04T06:33:13.105Z,222.80
2022-10-04T06:34:13.082Z,213.50
2022-10-04T06:35:13.089Z,158.80
2022-10-04T06:36:13.060Z,236.50
2022-10-04T06:37:13.107Z,215.60
2022-10-04T06:38:13.037Z,238.70
2022-10-04T06:39:13.047Z,172.70
2022-10-04T06:40:13.043Z,269.70
2022-10-04T06:41:13.006Z,252.00
2022-10-04T06:42:13.039Z,186.20
2022-10-04T06:43:12.986Z,288.10
2022-10-04T06:44:12.982Z,274.80
2022-10-04T06:45:12.966Z,80.70
2022-10-04T06:46:13.101Z,304.00
2022-10-04T06:47:12.984Z,320.20
2022-10-04T06:48:12.909Z,354.50
2022-10-04T06:49:12.931Z,368.30
2022-10-04T06:50:12.915Z,380.50
2022-10-04T06:51:12.925Z,78.40
2022-10-04T06:52:17.230Z,353.50
2022-10-04T06:53:12.890Z,307.40
2022-10-04T06:54:12.874Z,293.80
2022-10-04T06:55:12.832Z,275.80
2022-10-04T06:56:12.825Z,263.00
2022-10-04T06:57:12.880Z,319.60
2022-10-04T06:58:12.824Z,185.10
2022-10-04T06:59:12.810Z,196.00
2022-10-04T07:00:12.802Z,146.40
2022-10-04T07:01:12.835Z,111.80
2022-10-04T07:02:12.839Z,134.10
2022-10-04T07:03:12.763Z,91.60
2022-10-04T07:04:12.738Z,108.00
2022-10-04T07:05:12.744Z,104.70
2022-10-04T07:06:12.722Z,64.70
2022-10-04T07:07:12.755Z,40.10
2022-10-04T07:08:12.733Z,70.50
2022-10-04T07:09:12.715Z,77.70
2022-10-04T07:10:12.685Z,64.30
2022-10-04T07:11:12.681Z,57.80
2022-10-04T07:12:12.703Z,71.10
2022-10-04T07:13:12.679Z,66.60
2022-10-04T07:14:12.637Z,71.20
2022-10-04T07:15:12.636Z,51.70
2022-10-04T07:16:12.689Z,45.90
2022-10-04T07:17:12.635Z,91.20
2022-10-04T07:18:12.582Z,109.00
2022-10-04T07:19:12.586Z,104.80
2022-10-04T07:20:12.552Z,30.40
2022-10-04T07:21:12.577Z,69.50
2022-10-04T07:22:12.610Z,43.60
2022-10-04T07:23:12.551Z,59.30
2022-10-04T07:24:12.508Z,65.80
2022-10-04T07:25:12.511Z,45.60
2022-10-04T07:26:12.493Z,68.60
2022-10-04T07:27:12.516Z,43.90
2022-10-04T07:28:12.549Z,87.60
2022-10-04T07:29:12.473Z,78.20
2022-10-04T07:30:12.484Z,119.70
2022-10-04T07:31:12.482Z,34.10
2022-10-04T07:32:12.488Z,133.30
2022-10-04T07:33:12.422Z,95.20
2022-10-04T07:34:12.408Z,72.00
2022-10-04T07:35:12.422Z,65.70
2022-10-04T07:36:12.384Z,308.50
2022-10-04T07:37:12.426Z,58.20
2022-10-04T07:38:12.361Z,647.20
2022-10-04T07:39:12.354Z,46.30
2022-10-04T07:40:12.345Z,73.70
2022-10-04T07:41:12.327Z,58.30
2022-10-04T07:42:12.352Z,67.30
2022-10-04T07:43:12.302Z,68.80
2022-10-04T07:44:12.285Z,50.20
2022-10-04T07:45:12.290Z,59.80
2022-10-04T07:46:12.464Z,61.90
2022-10-04T07:47:12.271Z,131.50
2022-10-04T07:48:12.250Z,44.40
2022-10-04T07:49:12.257Z,142.00
2022-10-04T07:50:12.220Z,375.30
2022-10-04T07:51:12.254Z,376.50
2022-10-04T07:52:12.215Z,999.90
2022-10-04T07:53:12.212Z,999.90
2022-10-04T07:54:12.161Z,999.90
2022-10-04T07:55:12.176Z,999.90
2022-10-04T07:56:12.207Z,999.90
2022-10-04T07:57:12.184Z,999.90
2022-10-04T07:58:12.121Z,999.90
2022-10-04T07:59:12.133Z,999.90
2022-10-04T08:00:12.109Z,999.90
2022-10-04T08:01:12.160Z,999.90
2022-10-04T08:02:12.361Z,999.90
2022-10-04T08:03:12.127Z,999.90
2022-10-04T08:04:12.061Z,999.90
2022-10-04T08:05:12.061Z,999.90
2022-10-04T08:06:12.078Z,999.90
2022-10-04T08:07:12.073Z,999.90
2022-10-04T08:08:12.037Z,999.90
2022-10-04T08:09:12.012Z,999.90
2022-10-04T08:10:12.013Z,999.90
2022-10-04T08:11:12.010Z,999.90
2022-10-04T08:12:11.970Z,999.90
2022-10-04T08:13:11.966Z,999.90
2022-10-04T08:14:11.968Z,999.90
2022-10-04T08:15:11.965Z,999.90
2022-10-04T08:16:12.042Z,999.90
2022-10-04T08:17:15.456Z,999.90
2022-10-04T08:18:11.923Z,999.90
2022-10-04T08:19:11.880Z,999.90
2022-10-04T08:20:11.862Z,999.90
2022-10-04T08:21:11.864Z,999.90
2022-10-04T08:22:11.881Z,999.90
2022-10-04T08:23:11.841Z,999.90
2022-10-04T08:24:11.846Z,999.90
2022-10-04T08:25:11.836Z,999.90
2022-10-04T08:26:11.818Z,999.90
2022-10-04T08:27:11.841Z,999.90
2022-10-04T08:28:11.848Z,999.90
2022-10-04T08:29:11.781Z,999.90
2022-10-04T08:30:11.804Z,999.90
2022-10-04T08:31:11.840Z,999.90
2022-10-04T08:32:11.800Z,999.90
2022-10-04T08:33:11.758Z,999.90
2022-10-04T08:34:11.722Z,999.90
2022-10-04T08:35:11.702Z,999.90
2022-10-04T08:36:11.708Z,999.90
2022-10-04T08:37:11.735Z,999.90
2022-10-04T08:38:11.688Z,999.90
2022-10-04T08:39:11.665Z,999.90
2022-10-04T08:40:13.205Z,999.90
2022-10-04T08:41:11.645Z,999.90
2022-10-04T08:42:11.687Z,999.90
2022-10-04T08:43:11.623Z,999.90
2022-10-04T08:44:11.601Z,999.90
2022-10-04T08:45:11.626Z,999.90
2022-10-04T08:46:11.621Z,999.90
2022-10-04T08:47:11.609Z,999.90
2022-10-04T08:48:11.562Z,999.90
2022-10-04T08:49:11.582Z,999.90
2022-10-04T08:50:11.610Z,999.90
2022-10-04T08:51:11.509Z,999.90
2022-10-04T08:52:11.561Z,999.90
2022-10-04T08:53:11.511Z,823.50
2022-10-04T08:54:11.506Z,999.90
2022-10-04T08:55:11.480Z,999.90
2022-10-04T08:56:11.480Z,999.90
2022-10-04T08:57:15.899Z,999.90
2022-10-04T08:58:12.446Z,928.10
2022-10-04T08:59:11.446Z,999.90
2022-10-04T09:00:11.430Z,913.00
2022-10-04T09:01:11.450Z,142.80
2022-10-04T09:02:11.450Z,999.90
2022-10-04T09:03:11.406Z,136.20
2022-10-04T09:04:11.386Z,419.30
2022-10-04T09:05:11.383Z,999.90
2022-10-04T09:06:11.361Z,999.90
2022-10-04T09:07:11.405Z,999.90
2022-10-04T09:08:11.380Z,999.90
2022-10-04T09:09:11.339Z,999.90
2022-10-04T09:10:11.330Z,999.90
2022-10-04T09:11:11.344Z,999.90
2022-10-04T09:12:11.334Z,999.90
2022-10-04T09:13:11.281Z,999.90
2022-10-04T09:14:11.261Z,999.90
2022-10-04T09:15:11.271Z,999.90
2022-10-04T09:16:11.326Z,999.90
2022-10-04T09:17:11.295Z,999.90
2022-10-04T09:18:11.221Z,999.90
2022-10-04T09:19:11.221Z,999.90
2022-10-04T09:20:36.802Z,999.90
2022-10-04T09:21:12.186Z,999.90
2022-10-04T09:22:11.230Z,999.90
2022-10-04T09:23:11.162Z,999.90
2022-10-04T09:24:11.165Z,999.90
2022-10-04T09:25:11.141Z,999.90
2022-10-04T09:26:11.146Z,999.90
2022-10-04T09:27:11.187Z,999.90
2022-10-04T09:28:11.200Z,999.90
2022-10-04T09:29:11.102Z,999.90
2022-10-04T09:30:11.091Z,425.80
2022-10-04T09:31:11.137Z,937.40
2022-10-04T09:32:11.132Z,27.90
2022-10-04T09:33:11.073Z,42.00
2022-10-04T09:34:11.049Z,45.30
2022-10-04T09:35:11.042Z,34.70
2022-10-04T09:36:11.025Z,541.30
2022-10-04T09:37:11.089Z,999.90
2022-10-04T09:38:11.008Z,999.90
2022-10-04T09:39:29.333Z,999.90
2022-10-04T09:40:11.996Z,999.90
2022-10-04T09:41:10.964Z,999.90
2022-10-04T09:42:11.000Z,731.00
2022-10-04T09:43:10.954Z,786.10
2022-10-04T09:44:10.942Z,971.20
2022-10-04T09:45:10.925Z,28.20
2022-10-04T09:46:10.956Z,808.00
2022-10-04T09:47:10.973Z,125.60
2022-10-04T09:48:10.876Z,151.30
2022-10-04T09:49:10.869Z,45.80
2022-10-04T09:50:10.850Z,62.30
2022-10-04T09:51:10.873Z,913.20
2022-10-04T09:52:10.896Z,346.70
2022-10-04T09:53:10.840Z,987.60
2022-10-04T09:54:10.861Z,840.00
2022-10-04T09:55:10.832Z,999.90
2022-10-04T09:56:10.812Z,999.90
2022-10-04T09:57:10.832Z,999.90
2022-10-04T09:58:10.786Z,962.40
2022-10-04T09:59:10.778Z,999.90
2022-10-04T10:00:10.806Z,999.90
2022-10-04T10:01:10.742Z,999.90
2022-10-04T10:02:10.824Z,432.80
2022-10-04T10:03:15.404Z,999.90
2022-10-04T10:04:11.703Z,999.90
2022-10-04T10:05:10.726Z,301.10
2022-10-04T10:06:10.689Z,999.90
2022-10-04T10:07:10.730Z,266.20
2022-10-04T10:08:10.674Z,18.40
2022-10-04T10:09:10.673Z,129.40
2022-10-04T10:10:10.647Z,23.30
2022-10-04T10:11:10.646Z,999.90
2022-10-04T10:12:10.655Z,392.20
2022-10-04T10:13:10.614Z,28.50
2022-10-04T10:14:10.602Z,69.30
2022-10-04T10:15:10.574Z,19.60
2022-10-04T10:16:10.595Z,25.60
2022-10-04T10:17:10.601Z,155.20
2022-10-04T10:18:10.531Z,455.20
2022-10-04T10:19:10.532Z,695.80
2022-10-04T10:20:10.545Z,59.00
2022-10-04T10:21:10.525Z,999.90
2022-10-04T10:22:10.551Z,209.30
2022-10-04T10:23:10.491Z,27.60
2022-10-04T10:24:10.486Z,135.00
2022-10-04T10:25:10.477Z,489.20
2022-10-04T10:26:10.461Z,13.90
2022-10-04T10:27:10.494Z,10.80
2022-10-04T10:28:10.486Z,11.00
2022-10-04T10:29:10.447Z,10.70
2022-10-04T10:30:10.412Z,9.40
2022-10-04T10:31:10.448Z,7.80
2022-10-04T10:32:10.442Z,8.20
2022-10-04T10:33:10.399Z,9.40
2022-10-04T10:34:10.397Z,8.30
2022-10-04T10:35:10.376Z,8.60
2022-10-04T10:36:10.367Z,7.60
2022-10-04T10:37:10.394Z,7.70
2022-10-04T10:38:10.335Z,7.70
2022-10-04T10:39:10.353Z,6.90
2022-10-04T10:40:10.305Z,7.10
2022-10-04T10:41:10.303Z,7.10
2022-10-04T10:42:10.371Z,9.10
2022-10-04T10:43:10.287Z,7.90
2022-10-04T10:44:10.272Z,8.20
2022-10-04T10:45:10.244Z,8.20
2022-10-04T10:46:10.276Z,7.40
2022-10-04T10:47:10.258Z,7.30
2022-10-04T10:48:10.213Z,6.40
2022-10-04T10:49:10.216Z,6.70
2022-10-04T10:50:10.211Z,6.60
2022-10-04T10:51:10.204Z,6.20
2022-10-04T10:52:10.233Z,6.80
2022-10-04T10:53:10.177Z,7.90
2022-10-04T10:54:10.164Z,6.80
2022-10-04T10:55:10.148Z,7.40
2022-10-04T10:56:10.156Z,7.70
2022-10-04T10:57:10.172Z,6.70
2022-10-04T10:58:10.099Z,6.70
2022-10-04T10:59:10.097Z,6.10
2022-10-04T11:00:10.166Z,5.90
2022-10-04T11:01:10.071Z,6.00
2022-10-04T11:02:10.297Z,5.90
2022-10-04T11:03:13.764Z,6.30
2022-10-04T11:04:10.067Z,6.40
2022-10-04T11:05:10.049Z,7.60
2022-10-04T11:06:10.013Z,6.90
2022-10-04T11:07:10.049Z,7.40
2022-10-04T11:08:10.004Z,7.30
2022-10-04T11:09:10.005Z,6.70
2022-10-04T11:10:09.992Z,6.00
2022-10-04T11:11:09.969Z,6.20
2022-10-04T11:12:09.996Z,6.90
2022-10-04T11:13:09.939Z,6.70
2022-10-04T11:14:09.944Z,7.10
2022-10-04T11:15:09.905Z,7.50
2022-10-04T11:16:09.910Z,6.70
2022-10-04T11:17:09.952Z,6.10
2022-10-04T11:18:09.903Z,6.00
2022-10-04T11:19:09.888Z,6.20
2022-10-04T11:20:09.921Z,6.20
2022-10-04T11:21:09.855Z,6.50
2022-10-04T11:22:09.894Z,7.00
2022-10-04T11:23:09.843Z,6.80
2022-10-04T11:24:09.844Z,7.20
2022-10-04T11:25:09.834Z,6.70
2022-10-04T11:26:09.802Z,6.60
2022-10-04T11:27:09.839Z,6.40
2022-10-04T11:28:09.839Z,6.20
2022-10-04T11:29:09.752Z,6.00
2022-10-04T11:30:09.832Z,5.90
2022-10-04T11:31:09.780Z,6.30
2022-10-04T11:32:09.774Z,6.30
2022-10-04T11:33:09.723Z,6.40
2022-10-04T11:34:13.198Z,6.30
2022-10-04T11:35:10.695Z,6.20
2022-10-04T11:36:09.696Z,6.20
2022-10-04T11:37:09.727Z,6.50
2022-10-04T11:38:09.677Z,6.80
2022-10-04T11:39:09.655Z,6.70
2022-10-04T11:40:09.687Z,6.50
2022-10-04T11:41:09.647Z,6.00
2022-10-04T11:42:09.676Z,6.10
2022-10-04T11:43:09.626Z,6.20
2022-10-04T11:44:09.606Z,6.30
2022-10-04T11:45:09.587Z,6.00
2022-10-04T11:46:11.082Z,6.80
2022-10-04T11:47:09.650Z,6.60
2022-10-04T11:48:09.571Z,6.50
2022-10-04T11:49:09.551Z,6.70
2022-10-04T11:50:09.588Z,7.20
2022-10-04T11:51:09.526Z,7.80
2022-10-04T11:52:09.565Z,7.40
2022-10-04T11:53:09.510Z,8.90
2022-10-04T11:54:09.529Z,9.50
2022-10-04T11:55:09.481Z,9.30
2022-10-04T11:56:09.486Z,9.80
2022-10-04T11:57:09.507Z,10.10
2022-10-04T11:58:12.005Z,9.90
2022-10-04T11:59:09.432Z,16.10
2022-10-04T12:00:09.434Z,10.40
2022-10-04T12:01:09.425Z,10.10
2022-10-04T12:02:09.469Z,11.10
2022-10-04T12:03:09.467Z,10.40
2022-10-04T12:04:09.488Z,9.30
2022-10-04T12:05:09.394Z,8.80
2022-10-04T12:06:09.366Z,13.70
2022-10-04T12:07:09.401Z,13.40
2022-10-04T12:08:09.337Z,9.20
2022-10-04T12:09:09.337Z,11.70
2022-10-04T12:10:09.364Z,10.80
2022-10-04T12:11:09.297Z,13.10
2022-10-04T12:12:09.369Z,13.50
2022-10-04T12:13:09.279Z,15.30
2022-10-04T12:14:09.300Z,14.90
2022-10-04T12:15:09.272Z,13.40
2022-10-04T12:16:09.278Z,14.00
2022-10-04T12:17:09.313Z,14.70
2022-10-04T12:18:09.247Z,14.90
2022-10-04T12:19:09.250Z,14.70
2022-10-04T12:20:12.157Z,14.30
2022-10-04T12:21:09.199Z,16.40
2022-10-04T12:22:09.248Z,13.90
2022-10-04T12:23:09.193Z,16.20
2022-10-04T12:24:09.187Z,14.90
2022-10-04T12:25:09.180Z,10.40
2022-10-04T12:26:09.164Z,15.60
2022-10-04T12:27:09.215Z,10.80
2022-10-04T12:28:09.143Z,9.80
2022-10-04T12:29:09.106Z,15.10
2022-10-04T12:30:09.111Z,15.20
2022-10-04T12:31:09.110Z,16.10
2022-10-04T12:32:09.118Z,15.80
2022-10-04T12:33:09.043Z,13.50
2022-10-04T12:34:09.041Z,14.80
2022-10-04T12:35:09.046Z,12.20
2022-10-04T12:36:09.029Z,11.40
2022-10-04T12:37:09.060Z,17.20